SKUI/UIB METAR and TAF weather

Enter ICAO airport designator
Station Type Date Time Source
SKUI METAR 2019/12/12 23:00 UTC NOAA

SKUI 122300Z 13005KT 8000 VCSH BKN015 BKN080 25/24 A2977 RMK VCSH NE


Station Type Date Time Source
SKUI Decoded METAR 2019/12/12 23:00 UTC NOAA

Quibdo / El Carano, Colombia (SKUI) 05-43N 076-37W
Dec 12, 2019 - 06:00 PM EST / 2019.12.12 2300 UTC
Wind: from the SE (130 degrees) at 6 MPH (5 KT):0
Visibility: 4 mile(s):0
Sky conditions: mostly cloudy
Weather: showers in the vicinity
Temperature: 77 F (25 C)
Dew Point: 75 F (24 C)
Relative Humidity: 94%
Pressure (altimeter): 29.77 in. Hg (1008 hPa)
ob: SKUI 122300Z 13005KT 8000 VCSH BKN015 BKN080 25/24 A2977 RMK VCSH NE
cycle: 23

Station Type Date Time Source
SKUI TAF UTC NOAA

Error!

Example: see airport list